createdAt,value
2022-12-31T00:03:10.202Z,61.87
2022-12-31T00:05:58.615Z,63.34
2022-12-31T00:08:48.632Z,60.77
2022-12-31T00:11:38.341Z,59.20
2022-12-31T00:14:27.025Z,61.36
2022-12-31T00:17:15.118Z,63.28
2022-12-31T00:20:05.789Z,61.78
2022-12-31T00:22:54.108Z,59.88
2022-12-31T00:25:42.564Z,59.07
2022-12-31T00:28:33.358Z,61.42
2022-12-31T00:31:28.753Z,63.79
2022-12-31T00:34:17.140Z,62.13
2022-12-31T00:37:05.710Z,60.36
2022-12-31T00:39:53.526Z,59.68
2022-12-31T00:42:42.066Z,60.37
2022-12-31T00:45:30.618Z,63.66
2022-12-31T00:48:19.410Z,62.29
2022-12-31T00:51:17.396Z,60.03
2022-12-31T00:54:06.025Z,59.20
2022-12-31T00:56:54.486Z,59.95
2022-12-31T00:59:43.718Z,62.86
2022-12-31T01:02:33.039Z,62.88
2022-12-31T01:05:21.593Z,61.01
2022-12-31T01:08:09.847Z,59.02
2022-12-31T01:11:19.348Z,60.73
2022-12-31T01:14:15.057Z,63.17
2022-12-31T01:17:03.514Z,61.46
2022-12-31T01:19:52.330Z,59.75
2022-12-31T01:22:40.979Z,59.26
2022-12-31T01:25:29.369Z,61.85
2022-12-31T01:28:17.822Z,63.32
2022-12-31T01:31:10.468Z,61.32
2022-12-31T01:33:58.919Z,59.66
2022-12-31T01:36:47.061Z,59.42
2022-12-31T01:39:35.714Z,62.21
2022-12-31T01:42:26.448Z,63.71
2022-12-31T01:45:14.919Z,61.69
2022-12-31T01:48:03.421Z,59.70
2022-12-31T01:50:53.720Z,59.47
2022-12-31T01:53:43.474Z,62.12
2022-12-31T01:56:31.950Z,63.15
2022-12-31T01:59:22.361Z,61.64
2022-12-31T02:02:11.113Z,59.90
2022-12-31T02:05:03.347Z,59.09
2022-12-31T02:07:53.768Z,61.92
2022-12-31T02:10:42.440Z,63.41
2022-12-31T02:13:30.967Z,61.40
2022-12-31T02:16:40.862Z,59.84
2022-12-31T02:19:56.401Z,59.59
2022-12-31T02:23:32.761Z,62.50
2022-12-31T02:26:58.280Z,62.26
2022-12-31T02:30:13.129Z,59.96
2022-12-31T02:33:32.612Z,59.24
2022-12-31T02:36:26.701Z,61.94
2022-12-31T02:39:16.122Z,64.03
2022-12-31T02:42:04.738Z,61.50
2022-12-31T02:44:55.439Z,60.02
2022-12-31T02:48:10.924Z,58.97
2022-12-31T02:51:32.436Z,62.07
2022-12-31T02:54:58.901Z,63.49
2022-12-31T02:58:05.975Z,61.47
2022-12-31T03:01:17.358Z,60.67
2022-12-31T03:04:24.860Z,59.14
2022-12-31T03:07:21.522Z,61.05
2022-12-31T03:10:10.674Z,63.27
2022-12-31T03:12:58.777Z,62.50
2022-12-31T03:15:47.599Z,61.21
2022-12-31T03:18:54.352Z,60.30
2022-12-31T03:22:01.312Z,59.62
2022-12-31T03:25:10.784Z,59.50
2022-12-31T03:28:01.075Z,61.25
2022-12-31T03:30:56.687Z,64.39
2022-12-31T03:33:44.880Z,63.67
2022-12-31T03:36:33.317Z,62.42
2022-12-31T03:39:21.735Z,61.67
2022-12-31T03:42:10.289Z,61.38
2022-12-31T03:44:58.328Z,61.27
2022-12-31T03:47:46.399Z,61.03
2022-12-31T03:50:35.901Z,60.89
2022-12-31T03:53:24.088Z,60.93
2022-12-31T03:56:12.572Z,60.34
2022-12-31T03:59:01.015Z,60.87
2022-12-31T04:01:49.153Z,61.93
2022-12-31T04:04:37.437Z,61.53
2022-12-31T04:07:25.730Z,62.07
2022-12-31T04:10:16.928Z,62.17
2022-12-31T04:13:04.948Z,62.32
2022-12-31T04:15:53.149Z,62.35
2022-12-31T04:18:41.497Z,63.04
2022-12-31T04:21:34.767Z,63.52
2022-12-31T04:24:23.866Z,63.71
2022-12-31T04:27:13.761Z,63.79
2022-12-31T04:30:01.736Z,64.14
2022-12-31T04:32:49.768Z,64.40
2022-12-31T04:35:38.377Z,65.42
2022-12-31T04:38:27.003Z,65.28
2022-12-31T04:41:18.626Z,65.31
2022-12-31T04:44:07.084Z,65.62
2022-12-31T04:46:55.705Z,65.68
2022-12-31T04:49:44.254Z,65.49
2022-12-31T04:52:35.762Z,65.05
2022-12-31T04:55:28.962Z,64.73
2022-12-31T04:58:18.936Z,65.27
2022-12-31T05:01:07.691Z,65.22
2022-12-31T05:03:55.834Z,64.88
2022-12-31T05:06:44.489Z,64.33
2022-12-31T05:09:33.262Z,64.30
2022-12-31T05:12:21.904Z,63.81
2022-12-31T05:15:10.395Z,64.19
2022-12-31T05:18:01.317Z,64.73
2022-12-31T05:20:51.043Z,64.05
2022-12-31T05:23:39.033Z,63.76
2022-12-31T05:26:27.672Z,63.93
2022-12-31T05:29:16.492Z,64.40
2022-12-31T05:32:05.259Z,64.37
2022-12-31T05:34:53.764Z,64.83
2022-12-31T05:37:42.210Z,65.16
2022-12-31T05:40:31.213Z,64.96
2022-12-31T05:43:19.279Z,65.29
2022-12-31T05:46:07.835Z,64.82
2022-12-31T05:48:56.074Z,64.55
2022-12-31T05:51:46.861Z,64.89
2022-12-31T05:54:36.540Z,64.74
2022-12-31T05:57:25.097Z,64.53
2022-12-31T06:00:14.301Z,64.59
2022-12-31T06:03:03.800Z,64.74
2022-12-31T06:05:52.186Z,64.88
2022-12-31T06:08:42.526Z,65.17
2022-12-31T06:11:31.082Z,65.41
2022-12-31T06:14:19.271Z,65.82
2022-12-31T06:17:07.314Z,66.12
2022-12-31T06:19:57.125Z,66.19
2022-12-31T06:22:45.652Z,66.64
2022-12-31T06:25:37.104Z,66.68
2022-12-31T06:28:25.859Z,66.28
2022-12-31T06:31:15.443Z,65.66
2022-12-31T06:34:04.575Z,65.10
2022-12-31T06:36:53.350Z,64.94
2022-12-31T06:39:41.475Z,65.33
2022-12-31T06:42:31.117Z,65.16
2022-12-31T06:45:20.607Z,65.23
2022-12-31T06:48:08.499Z,65.48
2022-12-31T06:50:57.689Z,65.36
2022-12-31T06:53:49.471Z,65.77
2022-12-31T06:56:38.363Z,66.16
2022-12-31T06:59:29.460Z,66.16
2022-12-31T07:02:42.562Z,65.86
2022-12-31T07:05:47.341Z,65.02
2022-12-31T07:09:14.257Z,64.83
2022-12-31T07:12:28.242Z,64.86
2022-12-31T07:15:46.547Z,64.94
2022-12-31T07:19:10.030Z,64.74
2022-12-31T07:21:59.513Z,64.72
2022-12-31T07:24:48.177Z,65.02
2022-12-31T07:28:16.832Z,65.81
2022-12-31T07:31:51.376Z,65.35
2022-12-31T07:35:34.588Z,65.38
2022-12-31T07:39:04.458Z,65.63
2022-12-31T07:42:11.668Z,65.31
2022-12-31T07:45:24.901Z,65.45
2022-12-31T07:48:28.019Z,65.16
2022-12-31T07:51:17.009Z,64.97
2022-12-31T07:54:11.831Z,64.82
2022-12-31T07:57:02.424Z,64.74
2022-12-31T08:00:06.996Z,65.04
2022-12-31T08:03:31.266Z,64.40
2022-12-31T08:06:59.100Z,64.45
2022-12-31T08:10:02.928Z,64.82
2022-12-31T08:12:56.704Z,64.90
2022-12-31T08:15:45.335Z,65.12
2022-12-31T08:18:33.994Z,65.24
2022-12-31T08:21:49.070Z,64.88
2022-12-31T08:24:49.710Z,64.70
2022-12-31T08:28:06.324Z,64.36
2022-12-31T08:31:06.241Z,64.45
2022-12-31T08:34:21.618Z,63.97
2022-12-31T08:37:26.865Z,63.78
2022-12-31T08:40:52.485Z,63.70
2022-12-31T08:43:59.675Z,63.46
2022-12-31T08:47:03.086Z,63.20
2022-12-31T08:49:51.699Z,63.15
2022-12-31T08:52:40.593Z,62.98
2022-12-31T08:55:29.281Z,63.20
2022-12-31T08:58:53.742Z,63.30
2022-12-31T09:01:54.593Z,63.50
2022-12-31T09:04:59.348Z,63.54
2022-12-31T09:08:08.887Z,63.76
2022-12-31T09:11:28.972Z,63.65
2022-12-31T09:14:44.038Z,63.25
2022-12-31T09:17:45.428Z,63.49
2022-12-31T09:20:44.126Z,63.25
2022-12-31T09:23:33.210Z,63.12
2022-12-31T09:27:01.851Z,63.06
2022-12-31T09:30:07.259Z,62.80
2022-12-31T09:33:35.370Z,62.88
2022-12-31T09:36:32.347Z,63.29
2022-12-31T09:39:44.220Z,63.33
2022-12-31T09:43:18.903Z,63.13
2022-12-31T09:46:36.965Z,62.98
2022-12-31T09:50:06.153Z,63.08
2022-12-31T09:53:32.422Z,63.06
2022-12-31T09:56:36.681Z,63.11
2022-12-31T09:59:48.911Z,62.74
2022-12-31T10:03:29.744Z,62.55
2022-12-31T10:06:32.938Z,62.69
2022-12-31T10:09:50.879Z,63.06
2022-12-31T10:13:11.970Z,63.40
2022-12-31T10:16:37.171Z,63.46
2022-12-31T10:19:58.961Z,63.32
2022-12-31T10:23:07.180Z,63.47
2022-12-31T10:26:40.469Z,63.60
2022-12-31T10:29:41.913Z,63.67
2022-12-31T10:32:59.004Z,63.39
2022-12-31T10:35:53.820Z,63.03
2022-12-31T10:39:06.151Z,63.21
2022-12-31T10:42:26.282Z,63.30
2022-12-31T10:45:53.325Z,63.46
2022-12-31T10:49:21.940Z,63.47
2022-12-31T10:52:30.652Z,63.39
2022-12-31T10:55:31.012Z,63.11
2022-12-31T10:58:24.660Z,63.62
2022-12-31T11:01:33.344Z,63.73
2022-12-31T11:04:36.659Z,64.02
2022-12-31T11:07:54.820Z,64.39
2022-12-31T11:11:00.921Z,64.55
2022-12-31T11:14:33.122Z,64.37
2022-12-31T11:18:02.022Z,64.45
2022-12-31T11:20:56.416Z,64.59
2022-12-31T11:24:04.230Z,64.35
2022-12-31T11:27:08.374Z,64.41
2022-12-31T11:30:57.200Z,64.51
2022-12-31T11:34:12.890Z,64.66
2022-12-31T11:37:32.911Z,64.98
2022-12-31T11:40:54.338Z,64.92
2022-12-31T11:44:04.359Z,64.81
2022-12-31T11:47:23.427Z,65.17
2022-12-31T11:50:20.070Z,65.16
2022-12-31T11:53:37.611Z,65.44
2022-12-31T11:56:34.150Z,66.05
2022-12-31T11:59:22.491Z,66.70
2022-12-31T12:02:34.781Z,66.62
2022-12-31T12:05:26.771Z,66.36
2022-12-31T12:08:16.674Z,66.46
2022-12-31T12:11:21.614Z,66.22
2022-12-31T12:14:34.004Z,66.42
2022-12-31T12:17:34.449Z,66.24
2022-12-31T12:20:32.880Z,66.05
2022-12-31T12:23:27.268Z,66.18
2022-12-31T12:26:38.559Z,66.73
2022-12-31T12:29:34.822Z,65.95
2022-12-31T12:32:27.413Z,65.98
2022-12-31T12:35:25.204Z,65.91
2022-12-31T12:38:21.187Z,65.31
2022-12-31T12:41:26.602Z,65.18
2022-12-31T12:44:17.347Z,65.37
2022-12-31T12:47:08.778Z,65.30
2022-12-31T12:49:58.697Z,65.53
2022-12-31T12:52:57.714Z,65.27
2022-12-31T12:56:37.442Z,64.80
2022-12-31T12:59:53.850Z,64.76
2022-12-31T13:03:06.952Z,65.75
2022-12-31T13:06:30.991Z,65.54
2022-12-31T13:10:13.893Z,65.09
2022-12-31T13:13:59.588Z,65.12
2022-12-31T13:17:00.281Z,65.59
2022-12-31T13:20:10.491Z,65.34
2022-12-31T13:23:19.516Z,65.62
2022-12-31T13:26:28.555Z,66.46
2022-12-31T13:29:24.129Z,66.42
2022-12-31T13:32:33.200Z,66.24
2022-12-31T13:36:05.691Z,66.18
2022-12-31T13:39:14.622Z,67.10
2022-12-31T13:42:21.034Z,66.61
2022-12-31T13:45:24.887Z,66.81
2022-12-31T13:48:20.179Z,66.63
2022-12-31T13:51:23.199Z,66.67
2022-12-31T13:54:30.984Z,66.79
2022-12-31T13:57:48.452Z,67.09
2022-12-31T14:00:58.749Z,67.14
2022-12-31T14:04:16.239Z,67.26
2022-12-31T14:07:12.929Z,67.22
2022-12-31T14:10:01.015Z,67.07
2022-12-31T14:12:56.535Z,67.37
2022-12-31T14:16:19.526Z,67.11
2022-12-31T14:19:29.158Z,67.04
2022-12-31T14:22:55.297Z,66.97
2022-12-31T14:26:06.976Z,67.27
2022-12-31T14:29:10.072Z,67.35
2022-12-31T14:32:29.890Z,67.45
2022-12-31T14:35:45.130Z,67.84
2022-12-31T14:39:02.567Z,67.39
2022-12-31T14:42:08.508Z,67.58
2022-12-31T14:45:43.211Z,68.50
2022-12-31T14:48:54.557Z,67.56
2022-12-31T14:51:45.407Z,66.74
2022-12-31T14:54:38.709Z,66.68
2022-12-31T14:58:01.619Z,66.72
2022-12-31T15:01:15.944Z,67.40
2022-12-31T15:04:15.400Z,67.56
2022-12-31T15:07:22.115Z,68.26
2022-12-31T15:10:18.036Z,67.93
2022-12-31T15:14:03.838Z,67.48
2022-12-31T15:16:52.255Z,66.98
2022-12-31T15:20:10.113Z,67.30
2022-12-31T15:23:01.883Z,67.14
2022-12-31T15:26:00.431Z,67.40
2022-12-31T15:29:04.452Z,67.00
2022-12-31T15:31:54.640Z,66.83
2022-12-31T15:34:42.928Z,66.65
2022-12-31T15:37:37.221Z,66.72
2022-12-31T15:40:25.260Z,67.05
2022-12-31T15:43:29.443Z,66.87
2022-12-31T15:46:24.041Z,66.77
2022-12-31T15:49:23.317Z,67.41
2022-12-31T15:52:38.786Z,67.25
2022-12-31T15:55:51.105Z,67.03
2022-12-31T15:58:40.267Z,67.27
2022-12-31T16:01:34.217Z,67.61
2022-12-31T16:04:33.504Z,68.05
2022-12-31T16:07:24.378Z,67.74
2022-12-31T16:10:24.830Z,67.45
2022-12-31T16:13:25.381Z,67.07
2022-12-31T16:16:24.589Z,66.99
2022-12-31T16:19:46.347Z,67.24
2022-12-31T16:22:40.104Z,67.00
2022-12-31T16:25:32.701Z,66.44
2022-12-31T16:28:28.352Z,66.65
2022-12-31T16:31:20.146Z,66.58
2022-12-31T16:34:18.983Z,66.67
2022-12-31T16:37:16.247Z,66.77
2022-12-31T16:40:19.071Z,66.68
2022-12-31T16:43:27.584Z,66.34
2022-12-31T16:46:32.020Z,66.30
2022-12-31T16:49:22.287Z,66.22
2022-12-31T16:52:32.802Z,66.37
2022-12-31T16:55:28.875Z,66.59
2022-12-31T16:58:24.563Z,66.97
2022-12-31T17:01:18.311Z,66.75
2022-12-31T17:04:11.233Z,66.75
2022-12-31T17:07:35.579Z,66.47
2022-12-31T17:10:36.197Z,66.21
2022-12-31T17:13:32.276Z,66.06
2022-12-31T17:16:20.962Z,66.03
2022-12-31T17:19:43.375Z,65.63
2022-12-31T17:22:43.958Z,65.34
2022-12-31T17:25:36.162Z,65.21
2022-12-31T17:28:26.450Z,64.92
2022-12-31T17:31:29.726Z,65.14
2022-12-31T17:34:22.604Z,65.25
2022-12-31T17:37:19.366Z,65.30
2022-12-31T17:40:53.207Z,65.17
2022-12-31T17:43:43.317Z,65.71
2022-12-31T17:46:34.859Z,65.34
2022-12-31T17:49:29.868Z,65.38
2022-12-31T17:52:18.089Z,65.01
2022-12-31T17:55:07.049Z,65.01
2022-12-31T17:57:58.028Z,64.67
2022-12-31T18:00:46.449Z,64.77
2022-12-31T18:03:34.958Z,64.57
2022-12-31T18:06:23.522Z,64.70
2022-12-31T18:09:11.865Z,64.62
2022-12-31T18:12:07.137Z,64.52
2022-12-31T18:14:55.038Z,64.08
2022-12-31T18:17:44.146Z,64.16
2022-12-31T18:20:32.593Z,63.97
2022-12-31T18:23:39.836Z,63.46
2022-12-31T18:26:29.120Z,63.24
2022-12-31T18:29:19.971Z,63.14
2022-12-31T18:32:32.030Z,63.25
2022-12-31T18:38:31.678Z,63.55
2022-12-31T18:41:49.068Z,63.25
2022-12-31T18:44:37.098Z,63.60
2022-12-31T18:47:25.380Z,63.29
2022-12-31T18:50:17.743Z,62.98
2022-12-31T18:53:06.874Z,62.73
2022-12-31T18:55:58.510Z,62.77
2022-12-31T18:58:47.862Z,62.99
2022-12-31T19:01:39.714Z,63.22
2022-12-31T19:04:28.596Z,63.20
2022-12-31T19:07:17.205Z,63.37
2022-12-31T19:10:06.533Z,63.08
2022-12-31T19:12:55.121Z,63.17
2022-12-31T19:15:50.567Z,63.82
2022-12-31T19:18:38.886Z,64.12
2022-12-31T19:21:31.546Z,64.13
2022-12-31T19:24:22.857Z,64.27
2022-12-31T19:27:15.244Z,64.17
2022-12-31T19:30:06.576Z,64.08
2022-12-31T19:32:56.099Z,63.66
2022-12-31T19:35:45.164Z,62.96
2022-12-31T19:38:33.955Z,62.56
2022-12-31T19:41:22.461Z,62.28
2022-12-31T19:44:20.340Z,61.75
2022-12-31T19:47:13.600Z,61.50
2022-12-31T19:50:01.991Z,61.20
2022-12-31T19:52:52.637Z,61.51
2022-12-31T19:55:41.769Z,61.65
2022-12-31T19:58:30.689Z,62.03
2022-12-31T20:01:23.033Z,62.02
2022-12-31T20:04:11.463Z,61.66
2022-12-31T20:07:00.697Z,61.79
2022-12-31T20:09:49.080Z,61.10
2022-12-31T20:12:44.421Z,59.21
2022-12-31T20:15:33.826Z,61.12
2022-12-31T20:18:23.447Z,64.66
2022-12-31T20:21:17.989Z,64.43
2022-12-31T20:24:06.864Z,63.78
2022-12-31T20:26:55.052Z,63.30
2022-12-31T20:29:43.082Z,62.46
2022-12-31T20:32:31.550Z,62.22
2022-12-31T20:35:20.390Z,62.59
2022-12-31T20:38:09.059Z,62.52
2022-12-31T20:41:07.689Z,62.77
2022-12-31T20:43:59.939Z,62.48
2022-12-31T20:46:48.276Z,62.11
2022-12-31T20:50:09.773Z,61.74
2022-12-31T20:52:45.701Z,61.61
2022-12-31T20:55:38.904Z,61.68
2022-12-31T20:58:26.805Z,61.61
2022-12-31T21:01:17.121Z,61.49
2022-12-31T21:04:06.708Z,61.56
2022-12-31T21:06:55.160Z,61.43
2022-12-31T21:09:44.407Z,61.21
2022-12-31T21:12:45.058Z,61.50
2022-12-31T21:15:32.927Z,61.08
2022-12-31T21:18:23.196Z,60.85
2022-12-31T21:21:12.225Z,60.68
2022-12-31T21:24:00.588Z,60.76
2022-12-31T21:26:49.069Z,61.16
2022-12-31T21:29:55.661Z,60.85
2022-12-31T21:32:48.871Z,60.82
2022-12-31T21:35:43.779Z,60.64
2022-12-31T21:38:37.338Z,61.18
2022-12-31T21:41:44.068Z,61.66
2022-12-31T21:44:32.505Z,61.59
2022-12-31T21:47:45.699Z,61.78
2022-12-31T21:50:36.303Z,62.00
2022-12-31T21:53:32.272Z,62.07
2022-12-31T21:56:25.178Z,62.00
2022-12-31T21:59:32.075Z,61.88
2022-12-31T22:02:42.923Z,62.37
2022-12-31T22:05:56.177Z,62.58
2022-12-31T22:08:45.916Z,62.47
2022-12-31T22:11:34.502Z,62.58
2022-12-31T22:14:22.861Z,62.68
2022-12-31T22:17:10.748Z,62.74
2022-12-31T22:23:08.884Z,62.94
2022-12-31T22:25:57.851Z,62.81
2022-12-31T22:28:47.229Z,62.93
2022-12-31T22:31:36.415Z,62.92
2022-12-31T22:34:24.539Z,63.06
2022-12-31T22:37:35.719Z,63.78
2022-12-31T22:40:21.776Z,63.81
2022-12-31T22:43:12.880Z,63.74
2022-12-31T22:46:13.507Z,63.42
2022-12-31T22:49:04.193Z,63.14
2022-12-31T22:51:58.768Z,62.98
2022-12-31T22:54:49.067Z,62.87
2022-12-31T22:57:36.907Z,62.71
2022-12-31T23:00:39.383Z,62.57
2022-12-31T23:03:27.886Z,63.07
2022-12-31T23:06:16.935Z,63.36
2022-12-31T23:09:23.765Z,63.03
2022-12-31T23:12:12.110Z,62.74
2022-12-31T23:15:18.889Z,62.37
2022-12-31T23:18:25.993Z,62.23
2022-12-31T23:21:34.671Z,62.08
2022-12-31T23:24:26.388Z,62.09
2022-12-31T23:27:15.188Z,61.87
2022-12-31T23:30:04.357Z,61.96
2022-12-31T23:32:53.231Z,62.03
2022-12-31T23:35:41.973Z,61.97
2022-12-31T23:38:30.307Z,62.24
2022-12-31T23:41:20.424Z,62.22
2022-12-31T23:44:12.082Z,61.84
2022-12-31T23:47:00.807Z,61.95
2022-12-31T23:49:49.651Z,61.76
2022-12-31T23:52:38.122Z,61.85
2022-12-31T23:55:26.597Z,61.90
2022-12-31T23:58:15.974Z,62.11
